createdAt,value
2022-10-03T01:54:25.054Z,8.23
2022-10-03T01:59:27.301Z,8.16
2022-10-03T02:04:26.840Z,8.11
2022-10-03T02:09:24.948Z,8.16
2022-10-03T02:14:24.844Z,8.29
2022-10-03T02:19:24.766Z,8.30
2022-10-03T02:24:41.125Z,8.36
2022-10-03T02:29:25.671Z,8.36
2022-10-03T02:34:33.091Z,8.43
2022-10-03T02:39:24.440Z,8.59
2022-10-03T02:44:24.920Z,8.58
2022-10-03T02:49:24.362Z,8.55
2022-10-03T02:54:24.766Z,8.59
2022-10-03T02:59:24.258Z,8.48
2022-10-03T03:04:24.321Z,8.45
2022-10-03T03:09:24.067Z,8.40
2022-10-03T03:14:23.998Z,8.33
2022-10-03T03:19:23.982Z,8.33
2022-10-03T03:24:23.920Z,8.33
2022-10-03T03:29:24.029Z,8.30
2022-10-03T03:34:23.800Z,8.28
2022-10-03T03:39:24.856Z,8.26
2022-10-03T03:44:23.793Z,8.25
2022-10-03T03:49:23.725Z,8.33
2022-10-03T03:54:23.663Z,8.23
2022-10-03T03:59:23.548Z,8.20
2022-10-03T04:04:23.611Z,8.16
2022-10-03T04:09:23.594Z,8.16
2022-10-03T04:14:23.511Z,8.20
2022-10-03T04:19:23.445Z,8.25
2022-10-03T04:24:23.394Z,8.43
2022-10-03T04:29:23.228Z,8.43
2022-10-03T04:34:23.186Z,8.48
2022-10-03T04:39:23.099Z,8.63
2022-10-03T04:44:23.025Z,8.63
2022-10-03T04:49:22.975Z,8.71
2022-10-03T04:54:22.937Z,8.73
2022-10-03T04:59:22.853Z,8.74
2022-10-03T05:04:22.807Z,8.80
2022-10-03T05:09:22.746Z,8.86
2022-10-03T05:14:22.698Z,8.92
2022-10-03T05:19:22.737Z,8.95
2022-10-03T05:24:22.783Z,9.05
2022-10-03T05:29:22.720Z,9.11
2022-10-03T05:34:22.661Z,9.17
2022-10-03T05:39:22.595Z,9.28
2022-10-03T05:44:22.426Z,9.26
2022-10-03T05:49:22.360Z,9.24
2022-10-03T05:54:22.251Z,9.24
2022-10-03T05:59:22.205Z,9.23
2022-10-03T06:04:22.240Z,9.31
2022-10-03T06:09:22.103Z,9.33
2022-10-03T06:14:22.211Z,9.53
2022-10-03T06:19:22.115Z,9.68
2022-10-03T06:24:22.035Z,9.75
2022-10-03T06:29:22.014Z,9.91
2022-10-03T06:34:22.939Z,9.93
2022-10-03T06:39:21.870Z,10.04
2022-10-03T06:44:21.891Z,10.14
2022-10-03T06:49:21.790Z,10.29
2022-10-03T06:54:21.625Z,10.40
2022-10-03T06:59:21.572Z,10.44
2022-10-03T07:04:21.527Z,10.74
2022-10-03T07:09:21.442Z,10.94
2022-10-03T07:14:22.029Z,11.04
2022-10-03T07:19:21.411Z,11.25
2022-10-03T07:24:21.339Z,11.36
2022-10-03T07:29:21.294Z,11.51
2022-10-03T07:34:21.202Z,11.58
2022-10-03T07:39:21.160Z,11.70
2022-10-03T07:44:21.067Z,11.80
2022-10-03T07:49:21.057Z,12.09
2022-10-03T07:54:20.996Z,11.94
2022-10-03T07:59:21.031Z,11.98
2022-10-03T08:04:20.895Z,12.01
2022-10-03T08:09:21.017Z,12.34
2022-10-03T08:14:20.867Z,12.79
2022-10-03T08:19:20.893Z,12.93
2022-10-03T08:24:20.756Z,13.08
2022-10-03T08:29:20.687Z,13.26
2022-10-03T08:36:50.719Z,13.71
2022-10-03T08:41:50.671Z,13.99
2022-10-03T08:46:50.701Z,14.29
2022-10-03T08:51:50.594Z,14.45
2022-10-03T08:56:50.488Z,14.70
2022-10-03T09:01:50.609Z,15.16
2022-10-03T09:07:12.568Z,15.46
2022-10-03T09:11:52.436Z,15.69
2022-10-03T09:16:50.269Z,15.72
2022-10-03T09:21:50.196Z,15.65
2022-10-03T09:26:50.198Z,15.72
2022-10-03T09:31:50.240Z,15.65
2022-10-03T09:36:51.162Z,15.92
2022-10-03T09:41:49.989Z,16.01
2022-10-03T09:46:50.008Z,16.04
2022-10-03T09:51:49.980Z,16.42
2022-10-03T09:56:49.844Z,16.30
2022-10-03T10:01:49.977Z,16.14
2022-10-03T10:06:49.922Z,16.20
2022-10-03T10:11:50.251Z,16.35
2022-10-03T10:16:51.095Z,16.42
2022-10-03T10:21:49.637Z,16.25
2022-10-03T10:26:49.523Z,16.61
2022-10-03T10:31:49.491Z,16.86
2022-10-03T10:36:49.402Z,16.73
2022-10-03T10:41:49.310Z,17.26
2022-10-03T10:46:49.314Z,17.59
2022-10-03T10:51:49.232Z,17.55
2022-10-03T10:56:49.249Z,17.71
2022-10-03T11:01:49.099Z,17.74
2022-10-03T11:06:49.027Z,17.46
2022-10-03T11:11:48.973Z,17.07
2022-10-03T11:16:48.988Z,17.18
2022-10-03T11:21:48.886Z,17.15
2022-10-03T11:26:49.965Z,17.30
2022-10-03T11:31:48.940Z,17.52
2022-10-03T11:36:48.794Z,17.72
2022-10-03T11:41:48.634Z,17.95
2022-10-03T11:46:48.608Z,17.79
2022-10-03T11:51:53.422Z,18.07
2022-10-03T11:56:49.491Z,18.60
2022-10-03T12:01:51.398Z,19.04
2022-10-03T12:06:48.536Z,19.40
2022-10-03T12:11:48.383Z,19.10
2022-10-03T12:16:48.412Z,18.85
2022-10-03T12:21:48.224Z,18.72
2022-10-03T12:26:49.522Z,18.51
2022-10-03T12:31:48.321Z,18.47
2022-10-03T12:36:48.294Z,18.44
2022-10-03T12:41:48.203Z,17.89
2022-10-03T12:46:48.099Z,17.78
2022-10-03T12:51:47.996Z,17.72
2022-10-03T12:56:47.982Z,17.95
2022-10-03T13:01:47.932Z,18.20
2022-10-03T13:07:04.533Z,18.20
2022-10-03T13:11:48.765Z,18.35
2022-10-03T13:16:48.658Z,18.44
2022-10-03T13:21:47.717Z,18.30
2022-10-03T13:26:47.554Z,18.50
2022-10-03T13:31:47.594Z,18.47
2022-10-03T13:36:47.504Z,18.55
2022-10-03T13:41:47.664Z,18.36
2022-10-03T13:46:48.526Z,18.30
2022-10-03T13:51:48.482Z,18.17
2022-10-03T13:56:47.269Z,17.97
2022-10-03T14:01:47.429Z,17.78
2022-10-03T14:06:47.152Z,17.75
2022-10-03T14:11:47.124Z,17.68
2022-10-03T14:16:48.171Z,17.77
2022-10-03T14:21:47.186Z,17.77
2022-10-03T14:26:46.966Z,17.68
2022-10-03T14:31:48.166Z,17.58
2022-10-03T16:43:39.804Z,15.32
2022-10-03T16:48:39.774Z,15.07
2022-10-03T16:53:39.826Z,14.88
2022-10-03T16:58:39.737Z,14.69
2022-10-03T17:03:39.678Z,14.50
2022-10-03T17:08:42.383Z,14.32
2022-10-03T17:13:39.483Z,14.17
2022-10-03T17:18:39.474Z,14.00
2022-10-03T17:23:39.394Z,13.79
2022-10-03T17:28:39.459Z,13.63
2022-10-03T17:33:39.315Z,13.44
2022-10-03T17:38:49.672Z,13.28
2022-10-03T17:43:40.253Z,13.23
2022-10-03T17:48:39.129Z,13.08
2022-10-03T17:53:39.202Z,12.93
2022-10-03T17:58:39.146Z,12.77
2022-10-03T18:03:40.092Z,12.68
2022-10-03T18:08:39.033Z,12.59
2022-10-03T18:13:38.939Z,12.50
2022-10-03T18:18:38.848Z,12.35
2022-10-03T18:23:54.156Z,12.23
2022-10-03T18:28:39.919Z,12.17
2022-10-03T18:33:38.758Z,12.10
2022-10-03T18:38:38.648Z,11.98
2022-10-03T18:43:38.541Z,11.90
2022-10-03T18:48:38.462Z,11.82
2022-10-03T18:53:38.460Z,11.69
2022-10-03T18:58:38.339Z,11.58
2022-10-03T19:03:38.302Z,11.46
2022-10-03T19:08:38.268Z,11.37
2022-10-03T19:13:38.298Z,11.32
2022-10-03T19:18:38.206Z,11.27
2022-10-03T19:23:38.095Z,11.28
2022-10-03T19:28:38.141Z,11.28
2022-10-03T19:33:38.057Z,11.19
2022-10-03T19:38:37.964Z,11.17
2022-10-03T19:43:37.911Z,11.11
2022-10-03T19:48:37.803Z,11.10
2022-10-03T19:53:37.939Z,11.07
2022-10-03T19:58:37.682Z,11.02
2022-10-03T20:03:37.735Z,10.91
2022-10-03T20:08:37.673Z,10.91
2022-10-03T20:13:37.661Z,10.82
2022-10-03T20:18:39.659Z,10.66
2022-10-03T20:23:37.493Z,10.51
2022-10-03T20:28:39.417Z,10.38
2022-10-03T20:33:37.677Z,10.38
2022-10-03T20:38:37.348Z,10.26
2022-10-03T20:43:41.233Z,10.20
2022-10-03T20:48:37.165Z,10.22
2022-10-03T20:53:37.490Z,10.14
2022-10-03T20:58:37.071Z,10.12
2022-10-03T21:03:37.178Z,10.05
2022-10-03T21:08:37.050Z,9.93
2022-10-03T21:13:37.096Z,9.81
2022-10-03T21:18:36.944Z,9.75
2022-10-03T21:23:46.736Z,9.76
2022-10-03T21:28:36.849Z,9.65
2022-10-03T21:33:36.612Z,9.58
2022-10-03T21:38:36.534Z,9.56
2022-10-03T21:43:36.484Z,9.53
2022-10-03T21:48:36.433Z,9.56
2022-10-03T21:53:36.484Z,9.57
2022-10-03T21:58:36.423Z,9.51
2022-10-03T22:03:37.335Z,9.50
2022-10-03T22:08:36.327Z,9.47
2022-10-03T22:13:36.243Z,9.56
2022-10-03T22:18:36.208Z,9.46
2022-10-03T22:23:36.050Z,9.39
2022-10-03T22:28:36.057Z,9.48
2022-10-03T22:33:35.939Z,9.54
2022-10-03T22:38:35.881Z,9.38
2022-10-03T22:43:35.796Z,9.23
2022-10-03T22:48:35.768Z,9.15
2022-10-03T22:53:35.744Z,9.20
2022-10-03T22:58:35.700Z,9.33
2022-10-03T23:03:35.692Z,9.23
2022-10-03T23:08:35.653Z,9.14
2022-10-03T23:13:35.595Z,9.11
2022-10-03T23:18:35.622Z,9.05
2022-10-03T23:23:36.640Z,9.01
2022-10-03T23:28:35.367Z,8.98
2022-10-03T23:33:35.311Z,9.02
2022-10-03T23:38:35.182Z,8.95
2022-10-03T23:43:35.154Z,8.96
2022-10-03T23:48:35.101Z,8.96
2022-10-03T23:53:35.141Z,8.96
2022-10-03T23:58:35.113Z,8.95
